createdAt,value
2022-10-27T00:02:13.308Z,99.90
2022-10-27T00:04:45.354Z,99.90
2022-10-27T00:07:17.383Z,99.90
2022-10-27T00:09:49.513Z,99.90
2022-10-27T00:12:22.317Z,99.90
2022-10-27T00:14:54.278Z,99.90
2022-10-27T00:17:26.477Z,99.90
2022-10-27T00:19:58.585Z,99.90
2022-10-27T00:22:30.623Z,99.90
2022-10-27T00:25:03.829Z,99.90
2022-10-27T00:27:35.965Z,99.90
2022-10-27T00:30:08.867Z,99.90
2022-10-27T00:32:40.827Z,99.90
2022-10-27T00:35:12.833Z,99.90
2022-10-27T00:37:44.729Z,99.90
2022-10-27T00:40:17.040Z,99.90
2022-10-27T00:42:48.986Z,99.90
2022-10-27T00:45:21.757Z,99.90
2022-10-27T00:47:54.014Z,99.90
2022-10-27T00:50:26.925Z,99.90
2022-10-27T00:53:01.106Z,99.90
2022-10-27T00:55:39.209Z,99.90
2022-10-27T00:58:18.339Z,99.90
2022-10-27T01:00:50.466Z,99.90
2022-10-27T01:03:24.050Z,99.90
2022-10-27T01:05:58.570Z,99.90
2022-10-27T01:08:31.354Z,99.90
2022-10-27T01:11:03.292Z,99.90
2022-10-27T01:13:35.374Z,99.90
2022-10-27T01:16:14.098Z,99.90
2022-10-27T01:19:21.222Z,99.90
2022-10-27T01:22:29.865Z,99.90
2022-10-27T01:25:13.862Z,99.90
2022-10-27T01:28:23.123Z,99.90
2022-10-27T01:31:13.145Z,99.90
2022-10-27T01:33:58.810Z,99.90
2022-10-27T01:36:48.957Z,99.90
2022-10-27T01:39:31.500Z,99.90
2022-10-27T01:42:47.176Z,99.90
2022-10-27T01:45:29.379Z,99.90
2022-10-27T01:48:04.297Z,99.90
2022-10-27T01:50:50.737Z,99.90
2022-10-27T01:53:44.491Z,99.90
2022-10-27T01:56:43.392Z,99.90
2022-10-27T01:59:50.947Z,99.90
2022-10-27T02:03:08.622Z,99.90
2022-10-27T02:05:55.102Z,99.90
2022-10-27T02:08:39.888Z,99.90
2022-10-27T02:11:13.111Z,99.90
2022-10-27T02:13:47.044Z,99.90
2022-10-27T02:16:26.715Z,99.90
2022-10-27T02:19:15.230Z,99.90
2022-10-27T02:21:52.359Z,99.90
2022-10-27T02:24:25.359Z,99.90
2022-10-27T02:27:05.393Z,99.90
2022-10-27T02:29:46.267Z,99.90
2022-10-27T02:32:24.107Z,99.90
2022-10-27T02:34:58.291Z,99.90
2022-10-27T02:37:38.904Z,99.90
2022-10-27T02:40:11.322Z,99.90
2022-10-27T02:42:43.228Z,99.90
2022-10-27T02:45:15.259Z,99.90
2022-10-27T02:47:48.128Z,99.90
2022-10-27T02:50:20.069Z,99.90
2022-10-27T02:52:52.304Z,99.90
2022-10-27T02:55:24.519Z,99.90
2022-10-27T02:57:56.500Z,99.90
2022-10-27T03:03:02.922Z,99.90
2022-10-27T03:05:34.992Z,99.90
2022-10-27T03:08:06.863Z,99.90
2022-10-27T03:10:40.234Z,99.90
2022-10-27T03:13:12.260Z,99.90
2022-10-27T03:15:45.922Z,99.90
2022-10-27T03:18:18.113Z,99.90
2022-10-27T03:20:50.268Z,99.90
2022-10-27T03:23:22.314Z,99.90
2022-10-27T03:25:56.714Z,99.90
2022-10-27T03:28:35.303Z,99.90
2022-10-27T03:31:07.867Z,99.90
2022-10-27T03:33:39.746Z,99.90
2022-10-27T03:36:14.274Z,99.90
2022-10-27T03:38:46.172Z,99.90
2022-10-27T03:41:18.075Z,99.90
2022-10-27T03:43:50.089Z,99.90
2022-10-27T03:46:21.972Z,99.90
2022-10-27T03:48:55.296Z,99.90
2022-10-27T03:51:27.240Z,99.90
2022-10-27T03:53:59.724Z,99.90
2022-10-27T03:56:31.626Z,99.90
2022-10-27T03:59:03.611Z,99.90
2022-10-27T04:01:36.739Z,99.90
2022-10-27T04:04:12.247Z,99.90
2022-10-27T04:06:44.256Z,99.90
2022-10-27T04:09:16.121Z,99.90
2022-10-27T04:11:48.169Z,99.90
2022-10-27T04:14:20.129Z,99.90
2022-10-27T04:16:52.710Z,99.90
2022-10-27T04:19:24.713Z,99.90
2022-10-27T04:21:57.046Z,99.90
2022-10-27T04:24:29.174Z,99.90
2022-10-27T04:27:01.939Z,99.90
2022-10-27T04:29:34.338Z,99.90
2022-10-27T04:32:06.371Z,99.90
2022-10-27T04:34:38.372Z,99.90
2022-10-27T04:37:10.509Z,99.90
2022-10-27T04:39:42.420Z,99.90
2022-10-27T04:42:14.375Z,99.90
2022-10-27T04:44:47.464Z,99.90
2022-10-27T04:47:19.397Z,99.90
2022-10-27T04:49:51.315Z,99.90
2022-10-27T04:52:23.268Z,99.90
2022-10-27T04:54:55.155Z,99.90
2022-10-27T04:57:27.104Z,99.90
2022-10-27T04:59:59.291Z,99.90
2022-10-27T05:02:34.647Z,99.90
2022-10-27T05:05:10.194Z,99.90
2022-10-27T05:07:42.141Z,99.90
2022-10-27T05:10:14.214Z,99.90
2022-10-27T05:12:46.237Z,99.90
2022-10-27T05:15:18.194Z,99.90
2022-10-27T05:17:51.232Z,99.90
2022-10-27T05:20:24.311Z,99.90
2022-10-27T05:22:56.216Z,99.90
2022-10-27T05:25:28.124Z,99.90
2022-10-27T05:28:09.238Z,99.90
2022-10-27T05:30:41.266Z,99.90
2022-10-27T05:33:13.893Z,99.90
2022-10-27T05:35:45.930Z,99.90
2022-10-27T05:38:18.412Z,99.90
2022-10-27T05:40:56.293Z,99.90
2022-10-27T05:43:31.533Z,99.90
2022-10-27T05:46:07.237Z,99.90
2022-10-27T05:48:39.291Z,99.90
2022-10-27T05:51:11.117Z,99.90
2022-10-27T05:53:43.268Z,99.90
2022-10-27T05:56:15.187Z,99.90
2022-10-27T05:58:47.074Z,99.90
2022-10-27T06:01:19.602Z,99.90
2022-10-27T06:03:51.854Z,99.90
2022-10-27T06:06:24.344Z,99.90
2022-10-27T06:08:56.364Z,99.90
2022-10-27T06:11:28.421Z,99.90
2022-10-27T06:14:00.861Z,99.90
2022-10-27T06:16:33.009Z,99.90
2022-10-27T06:19:04.974Z,99.90
2022-10-27T06:21:36.904Z,99.90
2022-10-27T06:24:09.734Z,99.90
2022-10-27T06:26:41.653Z,99.90
2022-10-27T06:29:13.543Z,99.90
2022-10-27T06:31:45.498Z,99.90
2022-10-27T06:34:17.643Z,99.90
2022-10-27T06:36:49.652Z,99.90
2022-10-27T06:39:21.551Z,99.90
2022-10-27T06:41:53.489Z,99.90
2022-10-27T06:44:25.991Z,99.90
2022-10-27T06:46:58.010Z,99.90
2022-10-27T06:49:30.007Z,99.90
2022-10-27T06:52:01.956Z,99.90
2022-10-27T06:54:34.061Z,99.90
2022-10-27T06:57:07.264Z,99.90
2022-10-27T06:59:39.279Z,99.90
2022-10-27T07:02:15.035Z,99.90
2022-10-27T07:04:47.119Z,99.90
2022-10-27T07:07:19.368Z,99.90
2022-10-27T07:09:51.505Z,99.90
2022-10-27T07:12:23.759Z,99.90
2022-10-27T07:14:57.364Z,99.90
2022-10-27T07:17:29.604Z,99.90
2022-10-27T07:20:01.630Z,99.90
2022-10-27T07:22:33.652Z,99.90
2022-10-27T07:25:06.363Z,99.90
2022-10-27T07:27:38.313Z,99.90
2022-10-27T07:30:10.798Z,99.90
2022-10-27T07:32:42.842Z,99.90
2022-10-27T07:35:16.398Z,99.90
2022-10-27T07:37:49.254Z,99.90
2022-10-27T07:40:28.544Z,99.90
2022-10-27T07:43:08.060Z,99.90
2022-10-27T07:45:43.361Z,99.90
2022-10-27T07:48:17.972Z,99.90
2022-10-27T07:50:52.199Z,99.90
2022-10-27T07:53:24.168Z,99.90
2022-10-27T07:55:58.546Z,99.90
2022-10-27T07:58:31.181Z,99.90
2022-10-27T08:01:04.443Z,99.90
2022-10-27T08:03:38.987Z,99.90
2022-10-27T08:06:11.102Z,99.90
2022-10-27T08:08:43.326Z,99.90
2022-10-27T08:11:16.431Z,99.90
2022-10-27T08:13:48.505Z,99.90
2022-10-27T08:16:26.605Z,99.90
2022-10-27T08:18:58.950Z,99.90
2022-10-27T08:21:32.423Z,99.90
2022-10-27T08:24:04.600Z,99.90
2022-10-27T08:26:36.929Z,99.90
2022-10-27T08:29:09.239Z,99.90
2022-10-27T08:31:44.484Z,99.90
2022-10-27T08:34:18.189Z,99.90
2022-10-27T08:36:50.241Z,99.90
2022-10-27T08:39:22.176Z,99.90
2022-10-27T08:42:32.138Z,99.90
2022-10-27T08:45:24.995Z,99.90
2022-10-27T08:47:59.943Z,99.90
2022-10-27T08:50:43.921Z,99.90
2022-10-27T08:53:28.955Z,99.90
2022-10-27T08:56:13.029Z,99.90
2022-10-27T08:58:48.194Z,99.90
2022-10-27T09:01:57.942Z,99.90
2022-10-27T09:05:34.794Z,99.90
2022-10-27T09:08:32.091Z,99.90
2022-10-27T09:11:27.349Z,99.90
2022-10-27T09:14:17.229Z,99.70
2022-10-27T09:17:15.620Z,99.50
2022-10-27T09:20:06.495Z,99.30
2022-10-27T09:22:42.948Z,99.10
2022-10-27T09:25:22.844Z,98.90
2022-10-27T09:28:01.274Z,98.80
2022-10-27T09:30:40.048Z,98.60
2022-10-27T09:33:23.186Z,98.50
2022-10-27T09:35:56.036Z,98.40
2022-10-27T09:38:28.545Z,98.30
2022-10-27T09:41:05.092Z,98.10
2022-10-27T09:43:42.839Z,97.90
2022-10-27T09:46:28.620Z,97.80
2022-10-27T09:49:09.932Z,97.70
2022-10-27T09:52:32.075Z,97.60
2022-10-27T09:55:04.503Z,97.60
2022-10-27T09:57:40.925Z,97.60
2022-10-27T10:00:21.661Z,97.50
2022-10-27T10:03:06.234Z,97.20
2022-10-27T10:05:38.598Z,97.00
2022-10-27T10:08:23.976Z,96.80
2022-10-27T10:11:22.226Z,96.40
2022-10-27T10:14:04.158Z,96.30
2022-10-27T10:16:38.628Z,96.20
2022-10-27T10:19:23.210Z,96.10
2022-10-27T10:22:00.971Z,95.80
2022-10-27T10:24:36.496Z,95.70
2022-10-27T10:27:29.378Z,95.60
2022-10-27T10:30:06.384Z,95.50
2022-10-27T10:32:51.013Z,95.30
2022-10-27T10:35:50.116Z,95.30
2022-10-27T10:38:37.758Z,95.30
2022-10-27T10:41:20.592Z,95.40
2022-10-27T10:44:17.280Z,95.40
2022-10-27T10:47:00.070Z,95.30
2022-10-27T10:49:41.098Z,95.40
2022-10-27T10:52:22.757Z,95.40
2022-10-27T10:54:55.459Z,95.50
2022-10-27T10:57:38.840Z,94.40
2022-10-27T11:00:21.575Z,94.50
2022-10-27T11:03:20.499Z,94.60
2022-10-27T11:06:01.813Z,94.80
2022-10-27T11:08:42.973Z,94.70
2022-10-27T11:11:27.595Z,94.70
2022-10-27T11:14:15.689Z,94.70
2022-10-27T11:17:07.342Z,94.70
2022-10-27T11:19:43.232Z,94.90
2022-10-27T11:22:20.449Z,94.90
2022-10-27T11:25:18.846Z,94.80
2022-10-27T11:28:05.100Z,94.80
2022-10-27T11:30:45.918Z,94.90
2022-10-27T11:33:48.118Z,94.80
2022-10-27T11:36:49.870Z,94.90
2022-10-27T11:39:36.429Z,94.90
2022-10-27T11:42:44.770Z,95.00
2022-10-27T11:45:52.107Z,94.90
2022-10-27T11:48:32.610Z,95.00
2022-10-27T11:51:20.552Z,95.20
2022-10-27T11:53:52.996Z,95.20
2022-10-27T11:56:39.741Z,95.30
2022-10-27T11:59:54.513Z,95.40
2022-10-27T12:03:19.480Z,95.50
2022-10-27T12:06:21.703Z,95.60
2022-10-27T12:08:57.651Z,95.80
2022-10-27T12:11:42.094Z,95.80
2022-10-27T12:14:33.752Z,95.90
2022-10-27T12:17:25.057Z,95.90
2022-10-27T12:20:01.509Z,96.00
2022-10-27T12:22:49.891Z,96.00
2022-10-27T12:25:31.891Z,96.00
2022-10-27T12:30:49.045Z,96.10
2022-10-27T12:33:37.049Z,96.10
2022-10-27T12:36:51.185Z,96.00
2022-10-27T12:39:53.831Z,96.10
2022-10-27T12:43:27.173Z,96.10
2022-10-27T12:46:47.855Z,96.10
2022-10-27T12:49:31.435Z,96.10
2022-10-27T12:52:25.338Z,96.20
2022-10-27T12:55:31.715Z,96.20
2022-10-27T12:58:21.207Z,96.30
2022-10-27T13:01:17.919Z,96.40
2022-10-27T13:04:24.237Z,96.50
2022-10-27T13:07:06.606Z,96.60
2022-10-27T13:10:21.736Z,96.60
2022-10-27T13:12:59.921Z,96.60
2022-10-27T13:15:41.783Z,96.70
2022-10-27T13:18:41.124Z,96.70
2022-10-27T13:21:51.100Z,96.70
2022-10-27T13:25:00.104Z,96.70
2022-10-27T13:28:00.893Z,96.80
2022-10-27T13:30:38.613Z,96.80
2022-10-27T13:33:36.461Z,96.90
2022-10-27T13:36:23.463Z,96.90
2022-10-27T13:39:27.950Z,97.00
2022-10-27T13:42:14.117Z,97.00
2022-10-27T13:44:47.771Z,97.10
2022-10-27T13:47:20.289Z,97.10
2022-10-27T13:49:58.712Z,97.20
2022-10-27T13:52:32.198Z,97.10
2022-10-27T13:55:29.050Z,97.20
2022-10-27T13:58:23.877Z,97.20
2022-10-27T14:01:35.430Z,97.20
2022-10-27T14:04:48.661Z,97.30
2022-10-27T14:07:20.780Z,97.30
2022-10-27T14:09:53.092Z,97.40
2022-10-27T14:12:35.095Z,97.50
2022-10-27T14:15:32.526Z,97.50
2022-10-27T14:18:05.818Z,97.80
2022-10-27T14:20:41.216Z,97.50
2022-10-27T14:23:17.476Z,97.50
2022-10-27T14:25:49.688Z,97.50
2022-10-27T14:28:24.063Z,97.50
2022-10-27T14:31:18.930Z,97.50
2022-10-27T14:33:53.224Z,97.60
2022-10-27T14:36:33.736Z,97.70
2022-10-27T14:39:09.055Z,97.80
2022-10-27T14:41:47.729Z,97.90
2022-10-27T14:44:31.533Z,97.90
2022-10-27T14:47:15.243Z,98.00
2022-10-27T14:49:53.409Z,98.00
2022-10-27T14:52:47.182Z,98.00
2022-10-27T14:55:38.544Z,98.10
2022-10-27T14:58:23.969Z,98.10
2022-10-27T15:00:56.110Z,98.20
2022-10-27T15:03:34.849Z,98.30
2022-10-27T15:06:07.123Z,98.30
2022-10-27T15:08:44.530Z,98.30
2022-10-27T15:11:27.714Z,98.40
2022-10-27T15:13:59.850Z,98.40
2022-10-27T15:16:34.533Z,98.30
2022-10-27T15:19:12.123Z,98.40
2022-10-27T15:21:46.757Z,98.40
2022-10-27T15:24:25.577Z,98.40
2022-10-27T15:26:58.985Z,98.50
2022-10-27T15:29:31.460Z,98.50
2022-10-27T15:32:03.584Z,98.40
2022-10-27T15:34:38.585Z,98.40
2022-10-27T15:37:32.472Z,98.50
2022-10-27T15:40:44.750Z,98.50
2022-10-27T15:43:30.631Z,98.50
2022-10-27T15:46:34.790Z,98.50
2022-10-27T15:49:18.965Z,98.50
2022-10-27T15:52:03.842Z,98.50
2022-10-27T15:54:39.258Z,98.50
2022-10-27T15:57:41.399Z,98.50
2022-10-27T16:00:13.382Z,98.40
2022-10-27T16:02:53.916Z,98.50
2022-10-27T16:05:31.907Z,98.50
2022-10-27T16:08:12.120Z,98.50
2022-10-27T16:10:54.908Z,98.40
2022-10-27T16:13:32.231Z,98.40
2022-10-27T16:16:04.610Z,98.40
2022-10-27T16:18:37.280Z,98.40
2022-10-27T16:21:30.037Z,98.30
2022-10-27T16:24:42.774Z,98.30
2022-10-27T16:27:24.530Z,98.20
2022-10-27T16:30:07.353Z,98.20
2022-10-27T16:32:39.602Z,98.20
2022-10-27T16:35:18.125Z,98.10
2022-10-27T16:37:50.004Z,98.20
2022-10-27T16:40:22.224Z,98.20
2022-10-27T16:43:00.392Z,98.10
2022-10-27T16:45:32.731Z,98.10
2022-10-27T16:48:06.530Z,98.10
2022-10-27T16:50:39.006Z,98.10
2022-10-27T16:53:11.365Z,98.10
2022-10-27T16:55:43.453Z,98.20
2022-10-27T16:58:15.409Z,98.10
2022-10-27T17:00:50.203Z,98.20
2022-10-27T17:03:22.549Z,98.20
2022-10-27T17:05:59.935Z,98.20
2022-10-27T17:08:34.337Z,98.20
2022-10-27T17:11:16.282Z,98.20
2022-10-27T17:13:48.558Z,98.20
2022-10-27T17:16:21.209Z,98.30
2022-10-27T17:18:56.069Z,98.30
2022-10-27T17:21:29.639Z,98.70
2022-10-27T17:24:02.460Z,98.40
2022-10-27T17:26:35.043Z,98.40
2022-10-27T17:29:08.802Z,98.40
2022-10-27T17:31:43.601Z,98.40
2022-10-27T17:34:25.093Z,98.50
2022-10-27T17:37:11.598Z,98.50
2022-10-27T17:39:48.415Z,98.60
2022-10-27T17:42:31.208Z,98.60
2022-10-27T17:45:07.097Z,98.70
2022-10-27T17:47:45.529Z,99.00
2022-10-27T17:50:26.908Z,98.70
2022-10-27T17:53:06.388Z,98.80
2022-10-27T17:55:42.776Z,98.90
2022-10-27T17:58:25.600Z,99.00
2022-10-27T18:01:11.272Z,99.00
2022-10-27T18:03:49.370Z,99.10
2022-10-27T18:06:30.783Z,99.10
2022-10-27T18:09:05.742Z,99.20
2022-10-27T18:11:38.762Z,99.20
2022-10-27T18:14:18.044Z,99.20
2022-10-27T18:16:50.580Z,99.50
2022-10-27T18:19:23.488Z,99.20
2022-10-27T18:21:57.414Z,99.30
2022-10-27T18:24:30.322Z,99.40
2022-10-27T18:27:02.457Z,99.40
2022-10-27T18:29:38.946Z,99.50
2022-10-27T18:32:11.339Z,99.50
2022-10-27T18:34:46.996Z,99.50
2022-10-27T18:37:21.010Z,99.70
2022-10-27T18:39:53.602Z,99.70
2022-10-27T18:42:26.006Z,99.80
2022-10-27T18:44:57.919Z,99.80
2022-10-27T18:47:29.847Z,99.80
2022-10-27T18:50:04.561Z,99.90
2022-10-27T18:52:39.028Z,99.90
2022-10-27T18:55:11.257Z,99.90
2022-10-27T18:57:43.515Z,99.90
2022-10-27T19:00:15.663Z,99.90
2022-10-27T19:02:50.826Z,99.90
2022-10-27T19:05:23.107Z,99.90
2022-10-27T19:07:55.255Z,99.90
2022-10-27T19:10:27.212Z,99.90
2022-10-27T19:13:00.005Z,99.90
2022-10-27T19:15:31.926Z,99.90
2022-10-27T19:18:04.206Z,99.90
2022-10-27T19:20:36.369Z,99.90
2022-10-27T19:23:08.421Z,99.90
2022-10-27T19:25:40.659Z,99.90
2022-10-27T19:28:12.650Z,99.90
2022-10-27T19:30:56.755Z,99.90
2022-10-27T19:33:29.435Z,99.90
2022-10-27T19:36:11.494Z,99.90
2022-10-27T19:38:43.879Z,99.90
2022-10-27T19:41:21.712Z,99.90
2022-10-27T19:43:55.909Z,99.90
2022-10-27T19:46:30.327Z,99.90
2022-10-27T19:49:06.173Z,99.90
2022-10-27T19:51:39.464Z,99.90
2022-10-27T19:54:19.305Z,99.90
2022-10-27T19:56:51.259Z,99.90
2022-10-27T19:59:24.519Z,99.90
2022-10-27T20:01:56.779Z,99.90
2022-10-27T20:04:28.794Z,99.90
2022-10-27T20:07:01.353Z,99.90
2022-10-27T20:09:36.096Z,99.90
2022-10-27T20:12:08.492Z,99.90
2022-10-27T20:14:40.496Z,99.90
2022-10-27T20:17:12.482Z,99.90
2022-10-27T20:19:44.378Z,99.90
2022-10-27T20:22:16.560Z,99.90
2022-10-27T20:24:53.966Z,99.90
2022-10-27T20:27:29.478Z,99.90
2022-10-27T20:30:01.823Z,99.90
2022-10-27T20:32:34.113Z,99.90
2022-10-27T20:35:08.476Z,99.90
2022-10-27T20:37:40.523Z,99.90
2022-10-27T20:40:12.702Z,99.90
2022-10-27T20:42:51.102Z,99.90
2022-10-27T20:45:23.288Z,99.90
2022-10-27T20:48:01.732Z,99.90
2022-10-27T20:50:37.336Z,99.90
2022-10-27T20:53:09.333Z,99.90
2022-10-27T20:55:41.190Z,99.90
2022-10-27T20:58:13.119Z,99.90
2022-10-27T21:00:45.091Z,99.90
2022-10-27T21:03:18.338Z,99.90
2022-10-27T21:05:54.875Z,99.90
2022-10-27T21:08:27.049Z,99.90
2022-10-27T21:10:58.966Z,99.90
2022-10-27T21:13:31.070Z,99.90
2022-10-27T21:16:03.081Z,99.90
2022-10-27T21:18:38.127Z,99.90
2022-10-27T21:21:17.492Z,99.90
2022-10-27T21:23:50.366Z,99.90
2022-10-27T21:26:23.593Z,99.90
2022-10-27T21:28:58.609Z,99.90
2022-10-27T21:31:32.372Z,99.90
2022-10-27T21:34:05.932Z,99.90
2022-10-27T21:36:38.464Z,99.90
2022-10-27T21:39:18.362Z,99.90
2022-10-27T21:41:59.906Z,99.90
2022-10-27T21:44:31.803Z,99.90
2022-10-27T21:47:03.815Z,99.90
2022-10-27T21:49:35.637Z,99.90
2022-10-27T21:52:07.512Z,99.90
2022-10-27T21:54:39.477Z,99.90
2022-10-27T21:57:11.428Z,99.90
2022-10-27T21:59:43.558Z,99.90
2022-10-27T22:02:15.672Z,99.90
2022-10-27T22:04:47.670Z,99.90
2022-10-27T22:07:19.540Z,99.90
2022-10-27T22:09:51.445Z,99.90
2022-10-27T22:12:23.461Z,99.90
2022-10-27T22:14:55.521Z,99.90
2022-10-27T22:17:29.381Z,99.90
2022-10-27T22:20:01.417Z,99.90
2022-10-27T22:22:33.323Z,99.90
2022-10-27T22:25:06.058Z,99.90
2022-10-27T22:27:38.951Z,99.90
2022-10-27T22:30:11.150Z,99.90
2022-10-27T22:32:43.387Z,99.90
2022-10-27T22:35:15.493Z,99.90
2022-10-27T22:37:47.486Z,99.90
2022-10-27T22:40:20.795Z,99.90
2022-10-27T22:42:52.942Z,99.90
2022-10-27T22:45:24.867Z,99.90
2022-10-27T22:47:57.327Z,99.90
2022-10-27T22:50:29.222Z,99.90
2022-10-27T22:53:04.234Z,99.90
2022-10-27T22:55:36.512Z,99.90
2022-10-27T22:58:08.416Z,99.90
2022-10-27T23:00:40.319Z,99.90
2022-10-27T23:03:14.066Z,99.90
2022-10-27T23:05:46.238Z,99.90
2022-10-27T23:08:18.150Z,99.90
2022-10-27T23:10:58.410Z,99.90
2022-10-27T23:13:34.411Z,99.90
2022-10-27T23:16:08.921Z,99.90
2022-10-27T23:18:41.091Z,99.90
2022-10-27T23:21:16.462Z,99.90
2022-10-27T23:23:51.801Z,99.90
2022-10-27T23:26:35.859Z,99.90
2022-10-27T23:29:12.173Z,99.90
2022-10-27T23:31:44.061Z,99.90
2022-10-27T23:34:15.958Z,99.90
2022-10-27T23:36:48.547Z,99.90
2022-10-27T23:39:20.429Z,99.90
2022-10-27T23:41:53.443Z,99.90
2022-10-27T23:44:25.287Z,99.90
2022-10-27T23:46:57.232Z,99.90
2022-10-27T23:49:29.091Z,99.90
2022-10-27T23:52:04.266Z,99.90
2022-10-27T23:54:36.207Z,99.90
2022-10-27T23:57:08.101Z,99.90
2022-10-27T23:59:41.174Z,99.90
